ěÝzenÝ letovÚho provozu ╚eskÚ republiky
Letiste: LKKB Aktualizace: 25.01.2022 10:59:28  UTC
 METAR LKKB 25.01. 11:00 ...
METAR LKKB 251100Z 25007KT 9999 OVC018 02/00 Q1031 NOSIG RMK WHT WHT=
 TAF LKKB 25.01. 05:00 ...
TAF LKKB 250500Z 2506/2606 25006KT 9999 OVC015      TEMPO 2506/2606 30008KT 4000 BR BKN007 OVC012=